createdAt,value
2022-08-19T00:02:00.579Z,52.87
2022-08-19T00:04:37.107Z,50.73
2022-08-19T00:07:08.603Z,57.93
2022-08-19T00:09:37.464Z,57.43
2022-08-19T00:12:06.861Z,62.60
2022-08-19T00:14:35.641Z,59.40
2022-08-19T00:17:05.190Z,60.30
2022-08-19T00:19:34.281Z,59.47
2022-08-19T00:22:04.245Z,58.60
2022-08-19T00:24:34.393Z,66.90
2022-08-19T00:27:25.699Z,58.27
2022-08-19T00:29:52.944Z,59.17
2022-08-19T00:32:22.716Z,63.50
2022-08-19T00:34:54.644Z,67.77
2022-08-19T00:37:26.775Z,62.40
2022-08-19T00:39:59.512Z,61.57
2022-08-19T00:42:30.133Z,65.97
2022-08-19T00:45:01.464Z,67.10
2022-08-19T00:47:30.061Z,63.40
2022-08-19T00:50:01.811Z,62.47
2022-08-19T00:57:03.955Z,59.00
2022-08-19T00:59:56.226Z,71.13
2022-08-19T01:02:28.829Z,68.20
2022-08-19T01:05:02.050Z,61.70
2022-08-19T01:07:37.636Z,68.03
2022-08-19T01:10:14.436Z,62.83
2022-08-19T01:12:44.727Z,63.03
2022-08-19T01:15:20.700Z,66.27
2022-08-19T01:17:51.566Z,62.33
2022-08-19T01:20:25.891Z,62.43
2022-08-19T01:23:02.143Z,63.90
2022-08-19T01:25:38.002Z,62.53
2022-08-19T01:28:10.840Z,64.87
2022-08-19T01:30:44.319Z,63.10
2022-08-19T01:33:14.079Z,61.93
2022-08-19T01:35:44.323Z,56.67
2022-08-19T01:38:25.985Z,60.10
2022-08-19T01:40:56.133Z,61.83
2022-08-19T01:43:24.885Z,60.83
2022-08-19T01:45:54.130Z,61.00
2022-08-19T01:48:23.800Z,61.90
2022-08-19T01:50:52.692Z,63.13
2022-08-19T01:53:22.772Z,59.90
2022-08-19T01:55:55.831Z,59.93
2022-08-19T01:58:37.144Z,61.87
2022-08-19T02:01:10.943Z,63.30
2022-08-19T02:03:39.650Z,58.93
2022-08-19T02:06:08.832Z,69.03
2022-08-19T02:08:41.285Z,60.33
2022-08-19T02:11:10.280Z,61.40
2022-08-19T02:13:41.653Z,60.70
2022-08-19T02:16:12.417Z,63.07
2022-08-19T02:18:41.238Z,62.07
2022-08-19T02:21:15.526Z,59.07
2022-08-19T02:24:00.909Z,59.17
2022-08-19T02:26:30.280Z,62.33
2022-08-19T02:28:59.101Z,68.87
2022-08-19T02:31:29.952Z,64.20
2022-08-19T02:34:04.262Z,64.00
2022-08-19T02:36:42.735Z,59.73
2022-08-19T02:39:22.333Z,56.83
2022-08-19T02:41:53.049Z,63.13
2022-08-19T02:44:29.304Z,59.53
2022-08-19T02:47:03.854Z,57.13
2022-08-19T02:49:34.782Z,58.73
2022-08-19T02:52:07.290Z,64.07
2022-08-19T02:54:37.386Z,63.17
2022-08-19T02:57:36.786Z,56.20
2022-08-19T03:00:09.516Z,55.60
2022-08-19T03:02:38.402Z,55.10
2022-08-19T03:05:12.755Z,57.17
2022-08-19T03:07:41.903Z,58.20
2022-08-19T03:10:12.294Z,61.27
2022-08-19T03:12:51.007Z,54.77
2022-08-19T03:15:25.355Z,54.87
2022-08-19T03:17:55.415Z,53.90
2022-08-19T03:20:28.206Z,48.00
2022-08-19T03:22:57.079Z,54.90
2022-08-19T03:25:27.483Z,57.00
2022-08-19T03:27:56.276Z,50.73
2022-08-19T03:30:25.451Z,52.37
2022-08-19T03:33:02.749Z,46.90
2022-08-19T03:35:37.819Z,50.23
2022-08-19T03:38:09.461Z,51.00
2022-08-19T03:40:40.332Z,50.60
2022-08-19T03:43:08.769Z,50.73
2022-08-19T03:45:37.218Z,49.77
2022-08-19T03:48:05.897Z,47.30
2022-08-19T03:50:34.397Z,50.73
2022-08-19T03:53:03.073Z,55.60
2022-08-19T03:55:31.549Z,48.20
2022-08-19T03:58:01.373Z,46.13
2022-08-19T04:00:29.900Z,49.70
2022-08-19T04:03:00.469Z,48.57
2022-08-19T04:05:30.952Z,55.87
2022-08-19T04:07:59.796Z,52.00
2022-08-19T04:10:29.056Z,49.57
2022-08-19T04:12:57.721Z,51.87
2022-08-19T04:15:32.921Z,45.43
2022-08-19T04:18:01.441Z,42.80
2022-08-19T04:20:29.962Z,46.67
2022-08-19T04:22:59.641Z,48.80
2022-08-19T04:25:28.188Z,48.80
2022-08-19T04:27:56.703Z,49.07
2022-08-19T04:30:25.178Z,50.97
2022-08-19T04:32:55.247Z,51.60
2022-08-19T04:35:25.052Z,48.10
2022-08-19T04:37:53.532Z,55.87
2022-08-19T04:40:39.589Z,56.67
2022-08-19T04:43:08.122Z,52.17
2022-08-19T04:45:43.675Z,49.90
2022-08-19T04:48:26.268Z,50.83
2022-08-19T04:50:59.379Z,45.97
2022-08-19T04:53:29.702Z,52.63
2022-08-19T04:56:10.633Z,48.93
2022-08-19T04:58:43.327Z,49.20
2022-08-19T05:01:14.343Z,42.70
2022-08-19T05:03:44.258Z,50.13
2022-08-19T05:06:16.674Z,45.93
2022-08-19T05:08:46.419Z,46.00
2022-08-19T05:11:18.167Z,47.30
2022-08-19T05:13:49.343Z,48.17
2022-08-19T05:16:21.542Z,39.93
2022-08-19T05:19:12.484Z,42.27
2022-08-19T05:22:01.223Z,38.97
2022-08-19T05:24:31.620Z,41.03
2022-08-19T05:27:00.638Z,47.73
2022-08-19T05:29:36.338Z,40.70
2022-08-19T05:32:09.220Z,44.20
2022-08-19T05:34:40.297Z,39.47
2022-08-19T05:37:09.957Z,40.83
2022-08-19T05:39:41.353Z,37.23
2022-08-19T05:42:13.531Z,43.10
2022-08-19T05:44:45.890Z,40.60
2022-08-19T05:47:16.139Z,42.93
2022-08-19T05:49:46.159Z,42.93
2022-08-19T05:52:18.935Z,41.70
2022-08-19T05:54:51.974Z,41.27
2022-08-19T05:57:21.327Z,40.17
2022-08-19T05:59:57.595Z,39.13
2022-08-19T06:02:27.298Z,43.73
2022-08-19T06:04:57.230Z,39.70
2022-08-19T06:07:25.948Z,44.50
2022-08-19T06:10:00.075Z,38.37
2022-08-19T06:12:34.025Z,39.43
2022-08-19T06:15:07.743Z,40.83
2022-08-19T06:17:36.714Z,42.97
2022-08-19T06:20:14.380Z,37.93
2022-08-19T06:22:46.010Z,41.10
2022-08-19T06:25:16.316Z,41.93
2022-08-19T06:28:11.388Z,47.33
2022-08-19T06:30:37.933Z,34.63
2022-08-19T06:33:06.716Z,39.33
2022-08-19T06:35:42.988Z,35.40
2022-08-19T06:38:11.556Z,41.67
2022-08-19T06:40:40.249Z,38.53
2022-08-19T06:43:09.556Z,40.07
2022-08-19T06:45:40.347Z,35.60
2022-08-19T06:48:09.051Z,36.53
2022-08-19T06:50:41.525Z,37.83
2022-08-19T06:53:10.040Z,38.13
2022-08-19T06:55:42.113Z,33.80
2022-08-19T06:58:15.272Z,34.13
2022-08-19T07:00:52.624Z,36.57
2022-08-19T07:03:24.362Z,35.60
2022-08-19T07:05:54.408Z,34.87
2022-08-19T07:08:23.179Z,37.70
2022-08-19T07:11:00.631Z,36.40
2022-08-19T07:13:37.618Z,37.83
2022-08-19T07:16:10.650Z,42.70
2022-08-19T07:18:44.395Z,37.10
2022-08-19T07:21:27.478Z,40.73
2022-08-19T07:24:05.467Z,36.83
2022-08-19T07:26:42.990Z,41.27
2022-08-19T07:29:19.404Z,37.50
2022-08-19T07:31:51.092Z,38.87
2022-08-19T07:34:26.537Z,37.17
2022-08-19T07:36:59.496Z,37.50
2022-08-19T07:39:35.975Z,38.77
2022-08-19T07:42:09.850Z,35.10
2022-08-19T07:44:50.166Z,35.03
2022-08-19T07:47:47.967Z,36.13
2022-08-19T07:50:13.560Z,33.47
2022-08-19T07:52:45.724Z,35.37
2022-08-19T07:55:40.448Z,34.93
2022-08-19T07:58:16.801Z,35.67
2022-08-19T08:00:49.151Z,34.93
2022-08-19T08:03:45.611Z,36.50
2022-08-19T08:06:33.101Z,40.43
2022-08-19T08:09:16.720Z,37.10
2022-08-19T08:11:50.618Z,35.20
2022-08-19T08:14:29.293Z,32.77
2022-08-19T08:16:59.237Z,37.03
2022-08-19T08:19:30.059Z,32.73
2022-08-19T08:22:02.222Z,34.17
2022-08-19T08:24:33.511Z,32.43
2022-08-19T08:27:04.755Z,30.43
2022-08-19T08:29:41.999Z,30.50
2022-08-19T08:32:14.930Z,28.23
2022-08-19T08:34:43.863Z,27.87
2022-08-19T08:37:12.424Z,28.97
2022-08-19T08:39:46.271Z,26.03
2022-08-19T08:42:26.854Z,27.20
2022-08-19T08:45:01.600Z,27.67
2022-08-19T08:47:36.895Z,32.37
2022-08-19T08:50:15.527Z,27.00
2022-08-19T08:52:49.209Z,26.40
2022-08-19T08:55:23.781Z,29.33
2022-08-19T08:58:00.990Z,27.10
2022-08-19T09:00:34.800Z,26.60
2022-08-19T09:03:07.014Z,25.70
2022-08-19T09:05:48.631Z,35.83
2022-08-19T09:08:35.801Z,23.27
2022-08-19T09:11:16.309Z,28.87
2022-08-19T09:14:40.642Z,25.20
2022-08-19T09:17:09.022Z,29.80
2022-08-19T09:19:48.961Z,27.30
2022-08-19T09:22:25.361Z,32.33
2022-08-19T09:24:56.214Z,27.10
2022-08-19T09:27:42.423Z,29.53
2022-08-19T09:30:18.471Z,28.30
2022-08-19T09:32:47.612Z,33.27
2022-08-19T09:35:23.605Z,27.37
2022-08-19T09:37:57.736Z,32.13
2022-08-19T09:40:34.381Z,27.00
2022-08-19T09:43:10.039Z,27.20
2022-08-19T09:45:42.155Z,26.03
2022-08-19T09:48:11.659Z,26.20
2022-08-19T09:50:51.937Z,29.70
2022-08-19T09:53:25.168Z,26.93
2022-08-19T09:55:54.433Z,23.03
2022-08-19T09:58:28.501Z,24.87
2022-08-19T10:00:57.548Z,25.90
2022-08-19T10:03:30.262Z,23.40
2022-08-19T10:06:05.541Z,22.20
2022-08-19T10:08:49.898Z,22.53
2022-08-19T10:11:28.449Z,22.50
2022-08-19T10:14:07.729Z,24.23
2022-08-19T10:16:40.072Z,23.63
2022-08-19T10:19:10.170Z,22.57
2022-08-19T10:21:40.505Z,21.27
2022-08-19T10:24:09.433Z,23.33
2022-08-19T10:26:42.934Z,21.40
2022-08-19T10:29:12.931Z,23.93
2022-08-19T10:32:01.471Z,23.83
2022-08-19T10:34:31.532Z,24.07
2022-08-19T10:37:01.877Z,20.67
2022-08-19T10:39:31.634Z,23.10
2022-08-19T10:42:11.431Z,23.77
2022-08-19T10:44:41.913Z,21.87
2022-08-19T10:47:24.509Z,22.87
2022-08-19T10:50:14.028Z,21.00
2022-08-19T10:52:49.801Z,22.67
2022-08-19T10:55:39.896Z,24.10
2022-08-19T10:58:14.675Z,23.80
2022-08-19T11:00:45.369Z,22.67
2022-08-19T11:03:14.276Z,23.03
2022-08-19T11:05:42.928Z,23.13
2022-08-19T11:08:23.385Z,24.10
2022-08-19T11:10:58.987Z,25.03
2022-08-19T11:13:27.474Z,22.73
2022-08-19T11:16:07.720Z,27.50
2022-08-19T11:18:40.767Z,21.97
2022-08-19T11:21:15.266Z,28.53
2022-08-19T11:23:44.267Z,23.93
2022-08-19T11:26:13.162Z,24.57
2022-08-19T11:28:42.469Z,26.37
2022-08-19T11:31:18.144Z,26.20
2022-08-19T11:33:47.879Z,23.93
2022-08-19T11:36:18.262Z,27.03
2022-08-19T11:38:49.309Z,25.23
2022-08-19T11:41:20.524Z,24.50
2022-08-19T11:43:49.317Z,24.80
2022-08-19T11:46:19.898Z,27.83
2022-08-19T11:48:49.076Z,24.43
2022-08-19T11:51:22.748Z,29.30
2022-08-19T11:53:51.657Z,33.60
2022-08-19T11:56:21.730Z,29.20
2022-08-19T11:58:50.974Z,28.50
2022-08-19T12:01:24.257Z,29.67
2022-08-19T12:03:55.704Z,29.37
2022-08-19T12:06:29.297Z,27.70
2022-08-19T12:08:59.563Z,32.37
2022-08-19T12:11:30.715Z,32.17
2022-08-19T12:14:03.121Z,38.67
2022-08-19T12:16:34.296Z,35.07
2022-08-19T12:20:19.259Z,37.67
2022-08-19T12:23:47.931Z,34.63
2022-08-19T12:26:17.389Z,42.07
2022-08-19T12:28:46.874Z,36.23
2022-08-19T12:31:16.635Z,38.33
2022-08-19T12:33:46.591Z,37.90
2022-08-19T12:36:18.607Z,44.33
2022-08-19T12:38:48.042Z,41.40
2022-08-19T12:41:19.389Z,42.70
2022-08-19T12:43:49.146Z,38.90
2022-08-19T12:46:22.319Z,44.10
2022-08-19T12:48:56.094Z,40.93
2022-08-19T12:51:26.206Z,40.03
2022-08-19T12:53:54.639Z,37.97
2022-08-19T12:56:23.502Z,40.30
2022-08-19T12:58:53.146Z,37.87
2022-08-19T13:01:23.401Z,41.03
2022-08-19T13:03:54.273Z,32.67
2022-08-19T13:06:22.762Z,34.17
2022-08-19T13:08:51.353Z,33.67
2022-08-19T13:11:25.240Z,32.07
2022-08-19T13:13:56.004Z,33.33
2022-08-19T13:16:24.458Z,34.90
2022-08-19T13:18:54.373Z,28.70
2022-08-19T13:21:26.167Z,31.00
2022-08-19T13:23:55.483Z,32.10
2022-08-19T13:26:24.309Z,33.30
2022-08-19T13:29:10.498Z,30.10
2022-08-19T13:32:17.704Z,31.63
2022-08-19T13:34:48.606Z,29.40
2022-08-19T13:37:17.113Z,34.77
2022-08-19T13:39:46.030Z,36.27
2022-08-19T13:42:15.162Z,34.80
2022-08-19T13:44:43.640Z,32.00
2022-08-19T13:47:13.678Z,35.97
2022-08-19T13:49:42.148Z,34.20
2022-08-19T13:52:12.045Z,45.10
2022-08-19T13:54:40.444Z,34.47
2022-08-19T13:57:08.968Z,36.50
2022-08-19T13:59:37.352Z,30.57
2022-08-19T14:02:06.394Z,33.70
2022-08-19T14:04:34.848Z,36.60
2022-08-19T14:07:04.305Z,29.93
2022-08-19T14:09:34.160Z,28.00
2022-08-19T14:12:02.681Z,29.30
2022-08-19T14:14:31.134Z,27.33
2022-08-19T14:16:59.634Z,28.60
2022-08-19T14:19:29.951Z,28.87
2022-08-19T14:21:59.545Z,33.73
2022-08-19T14:24:28.521Z,29.53
2022-08-19T14:27:00.085Z,27.30
2022-08-19T14:29:29.904Z,25.70
2022-08-19T14:32:03.545Z,25.97
2022-08-19T14:34:34.654Z,27.93
2022-08-19T14:37:03.152Z,28.43
2022-08-19T14:39:40.396Z,24.57
2022-08-19T14:42:12.734Z,24.10
2022-08-19T14:44:51.837Z,26.07
2022-08-19T14:47:20.530Z,26.00
2022-08-19T14:49:51.682Z,23.67
2022-08-19T14:52:21.539Z,24.80
2022-08-19T14:54:55.060Z,21.60
2022-08-19T14:57:25.575Z,23.33
2022-08-19T14:59:55.082Z,23.00
2022-08-19T15:02:34.297Z,22.60
2022-08-19T15:05:03.719Z,24.83
2022-08-19T15:07:32.186Z,25.30
2022-08-19T15:10:01.196Z,22.80
2022-08-19T15:12:31.401Z,27.07
2022-08-19T15:15:00.110Z,24.17
2022-08-19T15:17:45.510Z,23.80
2022-08-19T15:20:18.038Z,21.47
2022-08-19T15:22:47.447Z,24.90
2022-08-19T15:25:21.159Z,23.37
2022-08-19T15:27:51.178Z,26.57
2022-08-19T15:30:25.207Z,26.23
2022-08-19T15:32:55.840Z,25.27
2022-08-19T15:35:26.982Z,25.77
2022-08-19T15:37:56.923Z,26.03
2022-08-19T15:40:28.178Z,28.27
2022-08-19T15:42:58.804Z,28.53
2022-08-19T15:45:32.585Z,29.70
2022-08-19T15:48:02.099Z,31.07
2022-08-19T15:50:33.015Z,29.50
2022-08-19T15:53:06.242Z,27.67
2022-08-19T15:55:43.035Z,32.27
2022-08-19T15:58:32.981Z,28.80
2022-08-19T16:01:24.412Z,28.33
2022-08-19T16:04:15.714Z,29.97
2022-08-19T16:06:48.632Z,30.50
2022-08-19T16:09:23.536Z,33.73
2022-08-19T16:11:57.254Z,30.53
2022-08-19T16:14:33.648Z,29.87
2022-08-19T16:17:02.523Z,32.77
2022-08-19T16:19:32.095Z,31.07
2022-08-19T16:22:02.986Z,30.53
2022-08-19T16:24:31.539Z,32.87
2022-08-19T16:27:01.464Z,34.40
2022-08-19T16:29:34.755Z,33.03
2022-08-19T16:32:12.351Z,30.63
2022-08-19T16:34:43.788Z,29.57
2022-08-19T16:37:12.500Z,28.47
2022-08-19T16:39:41.561Z,31.20
2022-08-19T16:42:13.997Z,28.70
2022-08-19T16:44:46.863Z,34.23
2022-08-19T16:47:16.478Z,26.33
2022-08-19T16:49:54.437Z,27.97
2022-08-19T16:52:26.234Z,25.20
2022-08-19T16:54:55.479Z,27.37
2022-08-19T16:57:24.875Z,27.37
2022-08-19T16:59:54.695Z,25.03
2022-08-19T17:02:25.547Z,27.27
2022-08-19T17:04:59.342Z,26.40
2022-08-19T17:07:29.332Z,25.90
2022-08-19T17:10:02.511Z,26.00
2022-08-19T17:12:32.617Z,27.60
2022-08-19T17:15:03.538Z,26.50
2022-08-19T17:17:32.626Z,26.20
2022-08-19T17:20:03.406Z,27.57
2022-08-19T17:22:31.893Z,29.33
2022-08-19T17:25:00.350Z,31.57
2022-08-19T17:27:32.058Z,24.97
2022-08-19T17:30:03.800Z,27.37
2022-08-19T17:32:35.519Z,26.60
2022-08-19T17:35:05.727Z,26.33
2022-08-19T17:37:34.914Z,25.23
2022-08-19T17:40:04.436Z,26.20
2022-08-19T17:42:33.054Z,27.13
2022-08-19T17:45:03.280Z,27.43
2022-08-19T17:47:32.036Z,27.43
2022-08-19T17:50:00.829Z,24.27
2022-08-19T17:52:29.288Z,23.60
2022-08-19T17:54:57.775Z,23.00
2022-08-19T17:57:26.548Z,21.70
2022-08-19T17:59:55.354Z,21.30
2022-08-19T18:02:26.709Z,25.30
2022-08-19T18:04:58.370Z,23.17
2022-08-19T18:07:26.906Z,28.77
2022-08-19T18:09:55.636Z,22.27
2022-08-19T18:12:27.472Z,24.00
2022-08-19T18:14:56.031Z,24.40
2022-08-19T18:17:26.072Z,26.27
2022-08-19T18:19:54.801Z,26.60
2022-08-19T18:22:27.417Z,25.20
2022-08-19T18:24:57.105Z,26.60
2022-08-19T18:27:27.668Z,26.03
2022-08-19T18:29:59.066Z,25.97
2022-08-19T18:32:32.939Z,27.43
2022-08-19T18:35:03.173Z,24.47
2022-08-19T18:37:31.639Z,24.70
2022-08-19T18:40:17.723Z,26.23
2022-08-19T18:43:05.225Z,25.47
2022-08-19T18:45:51.702Z,25.00
2022-08-19T18:48:38.968Z,25.00
2022-08-19T18:51:08.859Z,21.83
2022-08-19T18:53:41.219Z,26.17
2022-08-19T18:56:14.171Z,23.07
2022-08-19T18:58:44.874Z,26.00
2022-08-19T19:01:20.177Z,26.33
2022-08-19T19:03:53.827Z,23.40
2022-08-19T19:06:26.086Z,24.90
2022-08-19T19:08:55.937Z,23.27
2022-08-19T19:11:28.968Z,25.63
2022-08-19T19:13:58.131Z,23.10
2022-08-19T19:16:26.582Z,23.87
2022-08-19T19:18:56.712Z,25.83
2022-08-19T19:21:29.898Z,23.87
2022-08-19T19:24:01.888Z,22.90
2022-08-19T19:26:30.439Z,27.97
2022-08-19T19:28:59.615Z,25.93
2022-08-19T19:31:28.583Z,25.20
2022-08-19T19:33:58.393Z,25.73
2022-08-19T19:36:27.157Z,30.13
2022-08-19T19:38:55.683Z,26.00
2022-08-19T19:41:26.035Z,25.27
2022-08-19T19:44:23.117Z,23.60
2022-08-19T19:46:45.331Z,27.37
2022-08-19T19:49:15.282Z,26.30
2022-08-19T19:51:44.790Z,23.80
2022-08-19T19:54:14.736Z,24.83
2022-08-19T19:56:45.303Z,25.93
2022-08-19T19:59:14.233Z,29.43
2022-08-19T20:01:46.881Z,24.93
2022-08-19T20:04:19.378Z,24.30
2022-08-19T20:06:48.350Z,26.00
2022-08-19T20:09:19.676Z,26.30
2022-08-19T20:11:53.728Z,25.43
2022-08-19T20:14:25.874Z,29.80
2022-08-19T20:16:56.851Z,24.53
2022-08-19T20:19:31.173Z,24.70
2022-08-19T20:21:59.757Z,28.07
2022-08-19T20:24:34.763Z,35.40
2022-08-19T20:27:05.104Z,26.47
2022-08-19T20:29:38.847Z,26.50
2022-08-19T20:32:09.904Z,25.97
2022-08-19T20:34:40.809Z,26.93
2022-08-19T20:37:09.848Z,26.30
2022-08-19T20:39:38.962Z,28.73
2022-08-19T20:42:07.867Z,24.77
2022-08-19T20:44:37.704Z,27.67
2022-08-19T20:47:06.837Z,26.27
2022-08-19T20:49:35.772Z,24.57
2022-08-19T20:52:06.922Z,25.57
2022-08-19T20:54:35.662Z,28.13
2022-08-19T20:57:05.386Z,34.07
2022-08-19T20:59:34.393Z,27.23
2022-08-19T21:02:02.931Z,25.70
2022-08-19T21:04:31.510Z,27.77
2022-08-19T21:07:00.414Z,24.93
2022-08-19T21:09:30.397Z,27.30
2022-08-19T21:11:58.837Z,26.90
2022-08-19T21:14:27.294Z,29.97
2022-08-19T21:16:55.778Z,26.97
2022-08-19T21:19:24.458Z,26.47
2022-08-19T21:21:53.695Z,27.80
2022-08-19T21:24:26.426Z,26.80
2022-08-19T21:27:01.853Z,27.60
2022-08-19T21:29:32.068Z,26.63
2022-08-19T21:32:00.694Z,25.97
2022-08-19T21:34:29.647Z,26.23
2022-08-19T21:36:58.458Z,24.73
2022-08-19T21:39:26.985Z,29.60
2022-08-19T21:41:55.514Z,29.73
2022-08-19T21:44:25.466Z,31.70
2022-08-19T21:46:53.971Z,31.57
2022-08-19T21:49:22.409Z,29.57
2022-08-19T21:51:51.489Z,30.33
2022-08-19T21:54:20.023Z,31.53
2022-08-19T21:56:48.495Z,31.67
2022-08-19T21:59:17.663Z,29.63
2022-08-19T22:01:50.598Z,28.53
2022-08-19T22:04:25.184Z,27.23
2022-08-19T22:06:55.070Z,33.30
2022-08-19T22:09:23.670Z,31.00
2022-08-19T22:11:52.347Z,28.07
2022-08-19T22:14:20.871Z,34.60
2022-08-19T22:16:53.598Z,30.47
2022-08-19T22:19:22.585Z,27.93
2022-08-19T22:21:51.114Z,27.10
2022-08-19T22:24:19.723Z,27.03
2022-08-19T22:26:51.286Z,24.70
2022-08-19T22:29:19.770Z,23.17
2022-08-19T22:31:58.683Z,25.07
2022-08-19T22:34:28.127Z,21.43
2022-08-19T22:36:57.362Z,24.17
2022-08-19T22:39:25.961Z,22.47
2022-08-19T22:41:55.149Z,23.20
2022-08-19T22:44:24.408Z,23.17
2022-08-19T22:46:52.973Z,20.83
2022-08-19T22:49:23.239Z,24.20
2022-08-19T22:52:09.346Z,22.73
2022-08-19T22:54:37.859Z,22.60
2022-08-19T22:57:06.604Z,30.67
2022-08-19T22:59:35.056Z,25.70
2022-08-19T23:02:03.705Z,20.50
2022-08-19T23:04:34.298Z,28.03
2022-08-19T23:07:03.357Z,20.97
2022-08-19T23:09:31.873Z,25.20
2022-08-19T23:12:01.635Z,22.87
2022-08-19T23:14:30.227Z,25.63
2022-08-19T23:16:59.324Z,28.73
2022-08-19T23:19:28.093Z,22.23
2022-08-19T23:21:58.423Z,24.93
2022-08-19T23:24:27.543Z,23.90
2022-08-19T23:27:13.366Z,24.33
2022-08-19T23:29:59.561Z,24.90
2022-08-19T23:32:28.054Z,22.40
2022-08-19T23:34:57.743Z,25.37
2022-08-19T23:37:29.762Z,22.07
2022-08-19T23:39:58.231Z,32.20
2022-08-19T23:42:26.758Z,21.70
2022-08-19T23:45:01.268Z,25.10
2022-08-19T23:47:30.405Z,24.33
2022-08-19T23:49:59.028Z,23.30
2022-08-19T23:52:29.448Z,25.50
2022-08-19T23:55:02.064Z,23.47
2022-08-19T23:57:30.527Z,26.57
2022-08-19T23:59:58.975Z,25.63
